sensor_id;sensor_type;location;lat;lon;timestamp;pressure;altitude;pressure_sealevel;temperature;humidity
15260;BME280;34462;51.368;12.364;2023-02-17T00:01:37;19098.50;;;-141.84;79.33
15260;BME280;34462;51.368;12.364;2023-02-17T00:04:05;19110.72;;;-141.84;79.78
15260;BME280;34462;51.368;12.364;2023-02-17T00:06:33;19159.47;;;-141.84;78.50
15260;BME280;34462;51.368;12.364;2023-02-17T00:09:03;19116.81;;;-141.84;78.68
15260;BME280;34462;51.368;12.364;2023-02-17T00:11:31;19159.47;;;-141.84;79.59
15260;BME280;34462;51.368;12.364;2023-02-17T00:13:59;19090.38;;;-141.84;80.31
15260;BME280;34462;51.368;12.364;2023-02-17T00:16:28;19070.06;;;-141.84;80.78
15260;BME280;34462;51.368;12.364;2023-02-17T00:18:59;19167.59;;;-141.84;81.24
15260;BME280;34462;51.368;12.364;2023-02-17T00:21:30;19126.97;;;-141.84;80.48
15260;BME280;34462;51.368;12.364;2023-02-17T00:23:59;19143.22;;;-141.84;79.58
15260;BME280;34462;51.368;12.364;2023-02-17T00:26:29;19126.97;;;-141.84;80.51
15260;BME280;34462;51.368;12.364;2023-02-17T00:28:57;19100.53;;;-141.84;81.54
15260;BME280;34462;51.368;12.364;2023-02-17T00:31:26;19080.22;;;-141.84;82.20
15260;BME280;34462;51.368;12.364;2023-02-17T00:33:55;19088.34;;;-141.84;82.61
15260;BME280;34462;51.368;12.364;2023-02-17T00:36:25;19084.28;;;-141.84;82.10
15260;BME280;34462;51.368;12.364;2023-02-17T00:38:55;19096.47;;;-141.84;82.45
15260;BME280;34462;51.368;12.364;2023-02-17T00:41:26;19086.31;;;-141.84;83.01
15260;BME280;34462;51.368;12.364;2023-02-17T00:43:56;19096.47;;;-141.84;82.42
15260;BME280;34462;51.368;12.364;2023-02-17T00:46:25;19096.47;;;-141.84;81.80
15260;BME280;34462;51.368;12.364;2023-02-17T00:48:54;19096.47;;;-141.84;82.34
15260;BME280;34462;51.368;12.364;2023-02-17T00:51:23;19092.41;;;-141.84;82.17
15260;BME280;34462;51.368;12.364;2023-02-17T00:53:51;19090.38;;;-141.84;82.04
15260;BME280;34462;51.368;12.364;2023-02-17T00:56:19;19068.03;;;-141.84;81.89
15260;BME280;34462;51.368;12.364;2023-02-17T00:58:48;19098.50;;;-141.84;80.92
15260;BME280;34462;51.368;12.364;2023-02-17T01:01:17;19116.81;;;-141.84;80.07
15260;BME280;34462;51.368;12.364;2023-02-17T01:03:45;19135.09;;;-141.84;79.60
15260;BME280;34462;51.368;12.364;2023-02-17T01:06:22;19126.97;;;-141.84;79.31
15260;BME280;34462;51.368;12.364;2023-02-17T01:08:51;19149.31;;;-141.84;79.20
15260;BME280;34462;51.368;12.364;2023-02-17T01:11:22;19122.91;;;-141.84;79.45
15260;BME280;34462;51.368;12.364;2023-02-17T01:13:51;19112.75;;;-141.84;80.02
15260;BME280;34462;51.368;12.364;2023-02-17T01:16:25;19090.38;;;-141.84;80.73
15260;BME280;34462;51.368;12.364;2023-02-17T01:18:54;19122.91;;;-141.84;80.24
15260;BME280;34462;51.368;12.364;2023-02-17T01:21:26;19114.78;;;-141.84;79.72
15260;BME280;34462;51.368;12.364;2023-02-17T01:23:56;19137.13;;;-141.84;79.99
15260;BME280;34462;51.368;12.364;2023-02-17T01:26:28;19131.03;;;-141.84;78.78
15260;BME280;34462;51.368;12.364;2023-02-17T01:28:57;19135.09;;;-141.84;78.73
15260;BME280;34462;51.368;12.364;2023-02-17T01:31:27;19131.03;;;-141.84;78.31
15260;BME280;34462;51.368;12.364;2023-02-17T01:33:59;19147.28;;;-141.84;77.68
15260;BME280;34462;51.368;12.364;2023-02-17T01:36:28;19159.47;;;-141.84;77.74
15260;BME280;34462;51.368;12.364;2023-02-17T01:38:56;19165.56;;;-141.84;76.68
15260;BME280;34462;51.368;12.364;2023-02-17T01:41:27;19189.97;;;-141.84;76.75
15260;BME280;34462;51.368;12.364;2023-02-17T01:44:12;19155.41;;;-141.84;76.54
15260;BME280;34462;51.368;12.364;2023-02-17T01:46:45;19122.91;;;-141.84;76.72
15260;BME280;34462;51.368;12.364;2023-02-17T01:49:29;19155.41;;;-141.84;77.07
15260;BME280;34462;51.368;12.364;2023-02-17T01:52:07;19187.91;;;-141.84;75.89
15260;BME280;34462;51.368;12.364;2023-02-17T01:54:41;19159.47;;;-141.84;76.20
15260;BME280;34462;51.368;12.364;2023-02-17T01:57:14;19165.56;;;-141.84;76.09
15260;BME280;34462;51.368;12.364;2023-02-17T01:59:44;19198.09;;;-141.84;74.73
15260;BME280;34462;51.368;12.364;2023-02-17T02:02:15;19175.72;;;-141.84;74.98
15260;BME280;34462;51.368;12.364;2023-02-17T02:04:48;19177.75;;;-141.84;75.06
15260;BME280;34462;51.368;12.364;2023-02-17T02:07:22;19177.75;;;-141.84;74.61
15260;BME280;34462;51.368;12.364;2023-02-17T02:09:56;19183.84;;;-141.84;74.04
15260;BME280;34462;51.368;12.364;2023-02-17T02:12:26;19187.91;;;-141.84;74.10
15260;BME280;34462;51.368;12.364;2023-02-17T02:14:59;19185.88;;;-141.84;74.10
15260;BME280;34462;51.368;12.364;2023-02-17T02:17:44;19216.38;;;-141.84;74.09
15260;BME280;34462;51.368;12.364;2023-02-17T02:20:40;19218.41;;;-141.84;73.84
15260;BME280;34462;51.368;12.364;2023-02-17T02:23:29;19234.66;;;-141.84;72.72
15260;BME280;34462;51.368;12.364;2023-02-17T02:27:00;19236.69;;;-141.84;73.13
15260;BME280;34462;51.368;12.364;2023-02-17T02:32:57;19196.06;;;-141.84;74.21
15260;BME280;34462;51.368;12.364;2023-02-17T02:35:35;19214.34;;;-141.84;74.61
15260;BME280;34462;51.368;12.364;2023-02-17T02:38:13;19224.50;;;-141.84;74.79
15260;BME280;34462;51.368;12.364;2023-02-17T02:40:48;19220.44;;;-141.84;74.78
15260;BME280;34462;51.368;12.364;2023-02-17T02:43:21;19210.28;;;-141.84;75.55
15260;BME280;34462;51.368;12.364;2023-02-17T02:45:50;19192.00;;;-141.84;75.45
15260;BME280;34462;51.368;12.364;2023-02-17T02:48:20;19242.78;;;-141.84;75.33
15260;BME280;34462;51.368;12.364;2023-02-17T02:51:11;19206.22;;;-141.84;76.12
15260;BME280;34462;51.368;12.364;2023-02-17T02:54:15;19208.25;;;-141.84;77.44
15260;BME280;34462;51.368;12.364;2023-02-17T02:57:07;19165.56;;;-141.84;78.11
15260;BME280;34462;51.368;12.364;2023-02-17T02:59:52;19171.66;;;-141.84;79.17
15260;BME280;34462;51.368;12.364;2023-02-17T03:02:32;19141.19;;;-141.84;79.88
15260;BME280;34462;51.368;12.364;2023-02-17T03:05:11;19167.59;;;-141.84;80.00
15260;BME280;34462;51.368;12.364;2023-02-17T03:07:50;19171.66;;;-141.84;80.39
15260;BME280;34462;51.368;12.364;2023-02-17T03:10:21;19175.72;;;-141.84;80.30
15260;BME280;34462;51.368;12.364;2023-02-17T03:12:49;19118.84;;;-141.84;80.02
15260;BME280;34462;51.368;12.364;2023-02-17T03:15:27;19141.19;;;-141.84;80.03
15260;BME280;34462;51.368;12.364;2023-02-17T03:17:56;19163.53;;;-141.84;79.83
15260;BME280;34462;51.368;12.364;2023-02-17T03:20:29;19135.09;;;-141.84;79.93
15260;BME280;34462;51.368;12.364;2023-02-17T03:22:59;19181.81;;;-141.84;77.79
15260;BME280;34462;51.368;12.364;2023-02-17T03:25:27;19177.75;;;-141.84;77.75
15260;BME280;34462;51.368;12.364;2023-02-17T03:27:56;19179.78;;;-141.84;77.77
15260;BME280;34462;51.368;12.364;2023-02-17T03:30:24;19155.41;;;-141.84;77.75
15260;BME280;34462;51.368;12.364;2023-02-17T03:32:52;19171.66;;;-141.84;78.18
15260;BME280;34462;51.368;12.364;2023-02-17T03:35:20;19151.34;;;-141.84;78.54
15260;BME280;34462;51.368;12.364;2023-02-17T03:37:50;19196.06;;;-141.84;77.47
15260;BME280;34462;51.368;12.364;2023-02-17T03:40:18;19179.78;;;-141.84;77.82
15260;BME280;34462;51.368;12.364;2023-02-17T03:42:46;19183.84;;;-141.84;77.71
15260;BME280;34462;51.368;12.364;2023-02-17T03:45:14;19200.13;;;-141.84;77.65
15260;BME280;34462;51.368;12.364;2023-02-17T03:47:43;19206.22;;;-141.84;77.50
15260;BME280;34462;51.368;12.364;2023-02-17T03:50:11;19187.91;;;-141.84;77.34
15260;BME280;34462;51.368;12.364;2023-02-17T03:52:39;19187.91;;;-141.84;77.46
15260;BME280;34462;51.368;12.364;2023-02-17T03:55:08;19133.06;;;-141.84;77.84
15260;BME280;34462;51.368;12.364;2023-02-17T03:57:37;19214.34;;;-141.84;77.76
15260;BME280;34462;51.368;12.364;2023-02-17T04:00:06;19189.97;;;-141.84;77.30
15260;BME280;34462;51.368;12.364;2023-02-17T04:02:35;19198.09;;;-141.84;77.55
15260;BME280;34462;51.368;12.364;2023-02-17T04:05:04;19222.47;;;-141.84;77.47
15260;BME280;34462;51.368;12.364;2023-02-17T04:07:32;19179.78;;;-141.84;77.07
15260;BME280;34462;51.368;12.364;2023-02-17T04:10:00;19183.84;;;-141.84;77.16
15260;BME280;34462;51.368;12.364;2023-02-17T04:12:33;19234.66;;;-141.84;76.86
15260;BME280;34462;51.368;12.364;2023-02-17T04:15:01;19222.47;;;-141.84;76.28
15260;BME280;34462;51.368;12.364;2023-02-17T04:17:29;19220.44;;;-141.84;77.16
15260;BME280;34462;51.368;12.364;2023-02-17T04:19:57;19198.09;;;-141.84;77.55
15260;BME280;34462;51.368;12.364;2023-02-17T04:22:26;19208.25;;;-141.84;78.07
15260;BME280;34462;51.368;12.364;2023-02-17T04:24:54;19216.38;;;-141.84;77.43
15260;BME280;34462;51.368;12.364;2023-02-17T04:27:22;19220.44;;;-141.84;77.28
15260;BME280;34462;51.368;12.364;2023-02-17T04:29:51;19204.19;;;-141.84;78.06
15260;BME280;34462;51.368;12.364;2023-02-17T04:32:20;19220.44;;;-141.84;77.11
15260;BME280;34462;51.368;12.364;2023-02-17T04:34:48;19242.78;;;-141.84;77.12
15260;BME280;34462;51.368;12.364;2023-02-17T04:37:16;19210.28;;;-141.84;78.36
15260;BME280;34462;51.368;12.364;2023-02-17T04:39:44;19177.75;;;-141.84;77.53
15260;BME280;34462;51.368;12.364;2023-02-17T04:42:12;19187.91;;;-141.84;77.93
15260;BME280;34462;51.368;12.364;2023-02-17T04:44:40;19240.75;;;-141.84;77.00
15260;BME280;34462;51.368;12.364;2023-02-17T04:47:10;19189.97;;;-141.84;77.48
15260;BME280;34462;51.368;12.364;2023-02-17T04:49:39;19206.22;;;-141.84;77.01
15260;BME280;34462;51.368;12.364;2023-02-17T04:52:07;19187.91;;;-141.84;77.46
15260;BME280;34462;51.368;12.364;2023-02-17T04:54:35;19200.13;;;-141.84;77.64
15260;BME280;34462;51.368;12.364;2023-02-17T04:57:03;19202.16;;;-141.84;78.57
15260;BME280;34462;51.368;12.364;2023-02-17T04:59:31;19200.13;;;-141.84;78.69
15260;BME280;34462;51.368;12.364;2023-02-17T05:02:00;19206.22;;;-141.84;78.35
15260;BME280;34462;51.368;12.364;2023-02-17T05:04:29;19181.81;;;-141.84;78.46
15260;BME280;34462;51.368;12.364;2023-02-17T05:06:57;19204.19;;;-141.84;78.64
15260;BME280;34462;51.368;12.364;2023-02-17T05:09:26;19189.97;;;-141.84;77.59
15260;BME280;34462;51.368;12.364;2023-02-17T05:11:54;19179.78;;;-141.84;78.36
15260;BME280;34462;51.368;12.364;2023-02-17T05:14:23;19171.66;;;-141.84;78.99
15260;BME280;34462;51.368;12.364;2023-02-17T05:16:51;19220.44;;;-141.84;77.28
15260;BME280;34462;51.368;12.364;2023-02-17T05:19:19;19232.63;;;-141.84;77.37
15260;BME280;34462;51.368;12.364;2023-02-17T05:21:48;19246.84;;;-141.84;77.20
15260;BME280;34462;51.368;12.364;2023-02-17T05:24:17;19234.66;;;-141.84;76.92
15260;BME280;34462;51.368;12.364;2023-02-17T05:26:45;19206.22;;;-141.84;77.42
15260;BME280;34462;51.368;12.364;2023-02-17T05:29:13;19238.72;;;-141.84;76.97
15260;BME280;34462;51.368;12.364;2023-02-17T05:31:41;19198.09;;;-141.84;77.37
15260;BME280;34462;51.368;12.364;2023-02-17T05:34:10;19208.25;;;-141.84;77.27
15260;BME280;34462;51.368;12.364;2023-02-17T05:36:39;19236.69;;;-141.84;77.16
15260;BME280;34462;51.368;12.364;2023-02-17T05:39:08;19230.59;;;-141.84;77.07
15260;BME280;34462;51.368;12.364;2023-02-17T05:41:36;19234.66;;;-141.84;76.87
15260;BME280;34462;51.368;12.364;2023-02-17T05:44:04;19234.66;;;-141.84;76.91
15260;BME280;34462;51.368;12.364;2023-02-17T05:46:32;19224.50;;;-141.84;76.46
15260;BME280;34462;51.368;12.364;2023-02-17T05:49:01;19232.63;;;-141.84;76.56
15260;BME280;34462;51.368;12.364;2023-02-17T05:51:29;19226.53;;;-141.84;75.91
15260;BME280;34462;51.368;12.364;2023-02-17T05:53:57;19220.44;;;-141.84;76.03
15260;BME280;34462;51.368;12.364;2023-02-17T05:56:27;19248.88;;;-141.84;75.93
15260;BME280;34462;51.368;12.364;2023-02-17T05:58:55;19250.91;;;-141.84;76.17
15260;BME280;34462;51.368;12.364;2023-02-17T06:01:23;19257.00;;;-141.84;76.16
15260;BME280;34462;51.368;12.364;2023-02-17T06:03:51;19240.75;;;-141.84;76.23
15260;BME280;34462;51.368;12.364;2023-02-17T06:06:19;19265.13;;;-141.84;76.43
15260;BME280;34462;51.368;12.364;2023-02-17T06:08:48;19236.69;;;-141.84;77.11
15260;BME280;34462;51.368;12.364;2023-02-17T06:11:16;19216.38;;;-141.84;76.97
15260;BME280;34462;51.368;12.364;2023-02-17T06:13:45;19228.56;;;-141.84;76.83
15260;BME280;34462;51.368;12.364;2023-02-17T06:16:14;19230.59;;;-141.84;76.76
15260;BME280;34462;51.368;12.364;2023-02-17T06:18:42;19242.78;;;-141.84;76.65
15260;BME280;34462;51.368;12.364;2023-02-17T06:21:10;19238.72;;;-141.84;76.47
15260;BME280;34462;51.368;12.364;2023-02-17T06:23:38;19271.25;;;-141.84;76.63
15260;BME280;34462;51.368;12.364;2023-02-17T06:26:06;19257.00;;;-141.84;76.15
15260;BME280;34462;51.368;12.364;2023-02-17T06:28:35;19230.59;;;-141.84;76.32
15260;BME280;34462;51.368;12.364;2023-02-17T06:31:04;19246.84;;;-141.84;76.43
15260;BME280;34462;51.368;12.364;2023-02-17T06:33:33;19265.13;;;-141.84;76.09
15260;BME280;34462;51.368;12.364;2023-02-17T06:36:01;19254.97;;;-141.84;75.90
15260;BME280;34462;51.368;12.364;2023-02-17T06:38:29;19297.66;;;-141.84;76.08
15260;BME280;34462;51.368;12.364;2023-02-17T06:40:58;19238.72;;;-141.84;76.82
15260;BME280;34462;51.368;12.364;2023-02-17T06:43:26;19240.75;;;-141.84;77.39
15260;BME280;34462;51.368;12.364;2023-02-17T06:45:54;19257.00;;;-141.84;76.62
15260;BME280;34462;51.368;12.364;2023-02-17T06:48:23;19246.84;;;-141.84;76.75
15260;BME280;34462;51.368;12.364;2023-02-17T06:50:52;19289.53;;;-141.84;75.87
15260;BME280;34462;51.368;12.364;2023-02-17T06:53:20;19273.28;;;-141.84;76.11
15260;BME280;34462;51.368;12.364;2023-02-17T06:55:48;19240.75;;;-141.84;76.02
15260;BME280;34462;51.368;12.364;2023-02-17T06:58:16;19265.13;;;-141.84;76.06
15260;BME280;34462;51.368;12.364;2023-02-17T07:00:44;19289.53;;;-141.84;75.89
15260;BME280;34462;51.368;12.364;2023-02-17T07:03:12;19271.25;;;-141.84;76.19
15260;BME280;34462;51.368;12.364;2023-02-17T07:05:42;19257.00;;;-141.84;76.51
15260;BME280;34462;51.368;12.364;2023-02-17T07:08:10;19252.94;;;-141.84;76.29
15260;BME280;34462;51.368;12.364;2023-02-17T07:10:38;19279.38;;;-141.84;76.68
15260;BME280;34462;51.368;12.364;2023-02-17T07:13:06;19287.50;;;-141.84;76.18
15260;BME280;34462;51.368;12.364;2023-02-17T07:15:34;19248.88;;;-141.84;76.64
15260;BME280;34462;51.368;12.364;2023-02-17T07:18:04;19295.63;;;-141.84;76.61
15260;BME280;34462;51.368;12.364;2023-02-17T07:20:32;19277.34;;;-141.84;76.49
15260;BME280;34462;51.368;12.364;2023-02-17T07:23:02;19303.75;;;-141.84;76.22
15260;BME280;34462;51.368;12.364;2023-02-17T07:25:30;19279.38;;;-141.84;76.84
15260;BME280;34462;51.368;12.364;2023-02-17T07:27:59;19273.28;;;-141.84;76.63
15260;BME280;34462;51.368;12.364;2023-02-17T07:30:27;19330.16;;;-141.84;76.18
15260;BME280;34462;51.368;12.364;2023-02-17T07:32:55;19313.91;;;-141.84;76.02
15260;BME280;34462;51.368;12.364;2023-02-17T07:35:23;19307.81;;;-141.84;75.44
15260;BME280;34462;51.368;12.364;2023-02-17T07:37:51;19303.75;;;-141.84;75.86
15260;BME280;34462;51.368;12.364;2023-02-17T07:40:21;19293.59;;;-141.84;75.62
15260;BME280;34462;51.368;12.364;2023-02-17T07:42:49;19309.84;;;-141.84;75.26
15260;BME280;34462;51.368;12.364;2023-02-17T07:45:17;19301.72;;;-141.84;74.94
15260;BME280;34462;51.368;12.364;2023-02-17T07:47:45;19334.22;;;-141.84;75.35
15260;BME280;34462;51.368;12.364;2023-02-17T07:50:14;19297.66;;;-141.84;75.56
15260;BME280;34462;51.368;12.364;2023-02-17T07:52:42;19297.66;;;-141.84;75.57
15260;BME280;34462;51.368;12.364;2023-02-17T07:55:10;19299.69;;;-141.84;75.54
15260;BME280;34462;51.368;12.364;2023-02-17T07:57:39;19340.31;;;-141.84;75.19
15260;BME280;34462;51.368;12.364;2023-02-17T08:00:09;19303.75;;;-141.84;74.89
15260;BME280;34462;51.368;12.364;2023-02-17T08:02:37;19315.94;;;-141.84;75.16
15260;BME280;34462;51.368;12.364;2023-02-17T08:05:06;19338.28;;;-141.84;74.25
15260;BME280;34462;51.368;12.364;2023-02-17T08:07:34;19374.88;;;-141.84;74.59
15260;BME280;34462;51.368;12.364;2023-02-17T08:10:03;19364.72;;;-141.84;74.03
15260;BME280;34462;51.368;12.364;2023-02-17T08:12:50;19342.34;;;-141.84;74.11
15260;BME280;34462;51.368;12.364;2023-02-17T08:15:36;19352.53;;;-141.84;73.88
15260;BME280;34462;51.368;12.364;2023-02-17T08:18:04;19334.22;;;-141.84;73.97
15260;BME280;34462;51.368;12.364;2023-02-17T08:20:32;19389.09;;;-141.84;73.54
15260;BME280;34462;51.368;12.364;2023-02-17T08:23:01;19364.72;;;-141.84;74.16
15260;BME280;34462;51.368;12.364;2023-02-17T08:25:31;19395.19;;;-141.84;74.33
15260;BME280;34462;51.368;12.364;2023-02-17T08:28:03;19334.22;;;-141.84;74.63
15260;BME280;34462;51.368;12.364;2023-02-17T08:30:34;19374.88;;;-141.84;74.35
15260;BME280;34462;51.368;12.364;2023-02-17T08:33:04;19364.72;;;-141.84;74.07
15260;BME280;34462;51.368;12.364;2023-02-17T08:35:32;19383.00;;;-141.84;73.57
15260;BME280;34462;51.368;12.364;2023-02-17T08:38:01;19383.00;;;-141.84;74.29
15260;BME280;34462;51.368;12.364;2023-02-17T08:40:29;19415.50;;;-141.84;73.38
15260;BME280;34462;51.368;12.364;2023-02-17T08:42:57;19431.78;;;-141.84;71.97
15260;BME280;34462;51.368;12.364;2023-02-17T08:45:29;19431.78;;;-141.84;71.71
15260;BME280;34462;51.368;12.364;2023-02-17T08:47:57;19464.28;;;-141.84;71.55
15260;BME280;34462;51.368;12.364;2023-02-17T08:50:26;19427.72;;;-141.84;71.36
15260;BME280;34462;51.368;12.364;2023-02-17T08:52:54;19462.25;;;-141.84;71.66
15260;BME280;34462;51.368;12.364;2023-02-17T08:55:23;19427.72;;;-141.84;71.63
15260;BME280;34462;51.368;12.364;2023-02-17T08:57:51;19409.41;;;-141.84;72.01
15260;BME280;34462;51.368;12.364;2023-02-17T09:00:20;19409.41;;;-141.84;72.18
15260;BME280;34462;51.368;12.364;2023-02-17T09:02:49;19439.91;;;-141.84;72.10
15260;BME280;34462;51.368;12.364;2023-02-17T09:05:18;19431.78;;;-141.84;72.01
15260;BME280;34462;51.368;12.364;2023-02-17T09:07:46;19435.84;;;-141.84;72.57
15260;BME280;34462;51.368;12.364;2023-02-17T09:10:15;19378.94;;;-141.84;73.34
15260;BME280;34462;51.368;12.364;2023-02-17T09:12:43;19393.16;;;-141.84;74.36
15260;BME280;34462;51.368;12.364;2023-02-17T09:15:11;19362.69;;;-141.84;74.80
15260;BME280;34462;51.368;12.364;2023-02-17T09:17:40;19370.81;;;-141.84;75.31
15260;BME280;34462;51.368;12.364;2023-02-17T09:20:11;19364.72;;;-141.84;75.21
15260;BME280;34462;51.368;12.364;2023-02-17T09:22:50;19387.06;;;-141.84;74.10
15260;BME280;34462;51.368;12.364;2023-02-17T09:25:19;19364.72;;;-141.84;73.51
15260;BME280;34462;51.368;12.364;2023-02-17T09:27:47;19393.16;;;-141.84;74.42
15260;BME280;34462;51.368;12.364;2023-02-17T09:30:16;19409.41;;;-141.84;74.12
15260;BME280;34462;51.368;12.364;2023-02-17T09:32:44;19413.47;;;-141.84;73.64
15260;BME280;34462;51.368;12.364;2023-02-17T09:35:16;19433.81;;;-141.84;72.07
15260;BME280;34462;51.368;12.364;2023-02-17T09:37:45;19425.69;;;-141.84;72.34
15260;BME280;34462;51.368;12.364;2023-02-17T09:40:19;19462.25;;;-141.84;72.45
15260;BME280;34462;51.368;12.364;2023-02-17T09:42:48;19450.06;;;-141.84;72.65
15260;BME280;34462;51.368;12.364;2023-02-17T09:45:21;19466.31;;;-141.84;71.73
15260;BME280;34462;51.368;12.364;2023-02-17T09:47:59;19452.09;;;-141.84;71.50
15260;BME280;34462;51.368;12.364;2023-02-17T09:50:40;19496.81;;;-141.84;71.16
15260;BME280;34462;51.368;12.364;2023-02-17T09:53:18;19452.09;;;-141.84;71.24
15260;BME280;34462;51.368;12.364;2023-02-17T09:55:54;19500.88;;;-141.84;71.27
15260;BME280;34462;51.368;12.364;2023-02-17T09:58:27;19454.13;;;-141.84;71.20
15260;BME280;34462;51.368;12.364;2023-02-17T10:01:00;19437.88;;;-141.84;71.57
15260;BME280;34462;51.368;12.364;2023-02-17T10:03:36;19443.97;;;-141.84;71.83
15260;BME280;34462;51.368;12.364;2023-02-17T10:06:15;19443.97;;;-141.84;71.52
15260;BME280;34462;51.368;12.364;2023-02-17T10:08:51;19429.75;;;-141.84;71.57
15260;BME280;34462;51.368;12.364;2023-02-17T10:11:29;19441.94;;;-141.84;71.67
15260;BME280;34462;51.368;12.364;2023-02-17T10:14:09;19439.91;;;-141.84;71.78
15260;BME280;34462;51.368;12.364;2023-02-17T10:16:47;19448.03;;;-141.84;72.38
15260;BME280;34462;51.368;12.364;2023-02-17T10:19:23;19478.50;;;-141.84;72.76
15260;BME280;34462;51.368;12.364;2023-02-17T10:22:04;19441.94;;;-141.84;72.27
15260;BME280;34462;51.368;12.364;2023-02-17T10:24:33;19439.91;;;-141.84;72.52
15260;BME280;34462;51.368;12.364;2023-02-17T10:27:19;19417.56;;;-141.84;73.97
15260;BME280;34462;51.368;12.364;2023-02-17T10:30:03;19399.25;;;-141.84;74.57
15260;BME280;34462;51.368;12.364;2023-02-17T10:32:51;19435.84;;;-141.84;75.05
15260;BME280;34462;51.368;12.364;2023-02-17T10:35:43;19433.81;;;-141.84;74.18
15260;BME280;34462;51.368;12.364;2023-02-17T10:38:30;19427.72;;;-141.84;72.27
15260;BME280;34462;51.368;12.364;2023-02-17T10:41:02;19470.38;;;-141.84;72.05
15260;BME280;34462;51.368;12.364;2023-02-17T10:43:32;19492.75;;;-141.84;71.08
15260;BME280;34462;51.368;12.364;2023-02-17T10:46:04;19517.13;;;-141.84;70.83
15260;BME280;34462;51.368;12.364;2023-02-17T10:48:39;19492.75;;;-141.84;70.05
15260;BME280;34462;51.368;12.364;2023-02-17T10:51:14;19559.81;;;-141.84;69.63
15260;BME280;34462;51.368;12.364;2023-02-17T10:53:50;19557.78;;;-141.84;69.48
15260;BME280;34462;51.368;12.364;2023-02-17T10:56:25;19533.38;;;-141.84;69.29
15260;BME280;34462;51.368;12.364;2023-02-17T10:58:58;19537.44;;;-141.84;68.21
15260;BME280;34462;51.368;12.364;2023-02-17T11:01:28;19569.97;;;-141.84;68.24
15260;BME280;34462;51.368;12.364;2023-02-17T11:04:02;19606.53;;;-141.84;68.52
15260;BME280;34462;51.368;12.364;2023-02-17T11:06:31;19618.75;;;-141.84;67.97
15260;BME280;34462;51.368;12.364;2023-02-17T11:09:17;19600.44;;;-141.84;67.93
15260;BME280;34462;51.368;12.364;2023-02-17T11:11:56;19618.75;;;-141.84;67.79
15260;BME280;34462;51.368;12.364;2023-02-17T11:14:27;19598.41;;;-141.84;67.72
15260;BME280;34462;51.368;12.364;2023-02-17T11:16:59;19600.44;;;-141.84;68.04
15260;BME280;34462;51.368;12.364;2023-02-17T11:19:31;19624.84;;;-141.84;68.09
15260;BME280;34462;51.368;12.364;2023-02-17T11:22:03;19567.94;;;-141.84;68.59
15260;BME280;34462;51.368;12.364;2023-02-17T11:24:34;19576.06;;;-141.84;69.05
15260;BME280;34462;51.368;12.364;2023-02-17T11:27:08;19565.91;;;-141.84;69.19
15260;BME280;34462;51.368;12.364;2023-02-17T11:29:37;19559.81;;;-141.84;69.54
15260;BME280;34462;51.368;12.364;2023-02-17T11:32:09;19586.22;;;-141.84;69.50
15260;BME280;34462;51.368;12.364;2023-02-17T11:34:40;19574.03;;;-141.84;69.77
15260;BME280;34462;51.368;12.364;2023-02-17T11:37:21;19545.56;;;-141.84;69.97
15260;BME280;34462;51.368;12.364;2023-02-17T11:39:54;19559.81;;;-141.84;70.44
15260;BME280;34462;51.368;12.364;2023-02-17T11:42:25;19555.75;;;-141.84;70.40
15260;BME280;34462;51.368;12.364;2023-02-17T11:44:56;19582.16;;;-141.84;70.62
15260;BME280;34462;51.368;12.364;2023-02-17T11:47:34;19600.44;;;-141.84;69.64
15260;BME280;34462;51.368;12.364;2023-02-17T11:50:26;19588.25;;;-141.84;69.56
15260;BME280;34462;51.368;12.364;2023-02-17T11:53:22;19618.75;;;-141.84;69.36
15260;BME280;34462;51.368;12.364;2023-02-17T11:56:07;19653.28;;;-141.84;68.87
15260;BME280;34462;51.368;12.364;2023-02-17T11:59:14;19616.72;;;-141.84;68.99
15260;BME280;34462;51.368;12.364;2023-02-17T12:02:05;19683.78;;;-141.84;68.59
15260;BME280;34462;51.368;12.364;2023-02-17T12:04:53;19667.50;;;-141.84;69.01
15260;BME280;34462;51.368;12.364;2023-02-17T12:07:42;19669.53;;;-141.84;68.92
15260;BME280;34462;51.368;12.364;2023-02-17T12:10:22;19667.50;;;-141.84;69.04
15260;BME280;34462;51.368;12.364;2023-02-17T12:13:14;19639.06;;;-141.84;68.78
15260;BME280;34462;51.368;12.364;2023-02-17T12:16:12;19675.63;;;-141.84;69.15
15260;BME280;34462;51.368;12.364;2023-02-17T12:18:55;19698.00;;;-141.84;68.86
15260;BME280;34462;51.368;12.364;2023-02-17T12:21:46;19704.09;;;-141.84;68.99
15260;BME280;34462;51.368;12.364;2023-02-17T12:24:45;19687.84;;;-141.84;68.60
15260;BME280;34462;51.368;12.364;2023-02-17T12:27:35;19641.09;;;-141.84;69.31
15260;BME280;34462;51.368;12.364;2023-02-17T12:30:25;19649.22;;;-141.84;69.73
15260;BME280;34462;51.368;12.364;2023-02-17T12:33:22;19628.91;;;-141.84;69.95
15260;BME280;34462;51.368;12.364;2023-02-17T12:35:59;19653.28;;;-141.84;70.04
15260;BME280;34462;51.368;12.364;2023-02-17T12:38:33;19596.38;;;-141.84;70.91
15260;BME280;34462;51.368;12.364;2023-02-17T12:41:06;19649.22;;;-141.84;70.76
15260;BME280;34462;51.368;12.364;2023-02-17T12:43:42;19671.56;;;-141.84;69.93
15260;BME280;34462;51.368;12.364;2023-02-17T12:46:22;19667.50;;;-141.84;69.99
15260;BME280;34462;51.368;12.364;2023-02-17T12:48:58;19659.38;;;-141.84;70.06
15260;BME280;34462;51.368;12.364;2023-02-17T12:51:30;19657.34;;;-141.84;69.91
15260;BME280;34462;51.368;12.364;2023-02-17T12:54:10;19612.63;;;-141.84;70.48
15260;BME280;34462;51.368;12.364;2023-02-17T12:57:04;19614.66;;;-141.84;70.41
15260;BME280;34462;51.368;12.364;2023-02-17T12:59:37;19669.53;;;-141.84;70.56
15260;BME280;34462;51.368;12.364;2023-02-17T13:02:11;19637.03;;;-141.84;71.01